Time;durP1;ratioP1;P1;durP2;ratioP2;P2;SDS_P1;SDS_P2;PMS_P1;PMS_P2;Temp;Humidity;BMP_temperature;BMP_pressure;BME280_temperature;BME280_humidity;BME280_pressure;Samples;Min_cycle;Max_cycle;Signal;HPM_P1;HPM_P2
2022/03/10 00:01:28;;;;;;;42.85;26.45;;;7.30;65.20;;;;;;4961384;28;20373;-82
2022/03/10 00:03:55;;;;;;;43.15;25.95;;;7.30;65.20;;;;;;4958713;28;20031;-82
2022/03/10 00:06:21;;;;;;;39.55;27.33;;;7.30;65.10;;;;;;4965225;28;20381;-84
2022/03/10 00:08:47;;;;;;;44.85;27.88;;;7.30;65.10;;;;;;4960930;28;20465;-80
2022/03/10 00:11:13;;;;;;;41.85;26.88;;;7.30;65.00;;;;;;4962229;28;20119;-82
2022/03/10 00:13:39;;;;;;;43.15;27.50;;;7.30;64.90;;;;;;4959800;28;20059;-84
2022/03/10 00:16:05;;;;;;;42.03;27.23;;;7.30;64.50;;;;;;4964477;28;20039;-83
2022/03/10 00:18:31;;;;;;;41.25;26.70;;;7.40;64.30;;;;;;4964089;28;20498;-80
2022/03/10 00:20:57;;;;;;;41.00;26.65;;;7.30;64.20;;;;;;4958798;28;20129;-82
2022/03/10 00:23:23;;;;;;;39.95;26.75;;;7.30;63.90;;;;;;4962566;28;20031;-81
2022/03/10 00:25:49;;;;;;;45.05;28.20;;;7.40;64.10;;;;;;4964247;28;20178;-81
2022/03/10 00:28:15;;;;;;;45.40;26.90;;;7.30;64.40;;;;;;4960341;28;20035;-82
2022/03/10 00:30:40;;;;;;;43.28;26.08;;;7.20;64.30;;;;;;4962541;28;20034;-80
2022/03/10 00:33:06;;;;;;;45.13;27.92;;;7.30;64.40;;;;;;4964971;28;20058;-81
2022/03/10 00:35:32;;;;;;;43.63;28.23;;;7.20;64.60;;;;;;4961997;28;20049;-88
2022/03/10 00:37:59;;;;;;;43.00;27.17;;;7.10;65.00;;;;;;4962743;28;20478;-82
2022/03/10 00:40:25;;;;;;;44.97;26.90;;;7.10;65.00;;;;;;4964656;28;20069;-84
2022/03/10 00:42:51;;;;;;;42.38;26.52;;;7.10;64.80;;;;;;4959939;28;20043;-81
2022/03/10 00:45:18;;;;;;;41.33;26.13;;;7.10;64.80;;;;;;4963465;28;20109;-82
2022/03/10 00:47:44;;;;;;;39.95;27.17;;;7.10;64.60;;;;;;4961682;28;20030;-81
2022/03/10 00:50:10;;;;;;;39.30;25.85;;;7.10;64.50;;;;;;4963940;28;20031;-81
2022/03/10 00:52:44;;;;;;;39.95;26.33;;;7.10;64.50;;;;;;4960512;28;20562;-82
2022/03/10 00:55:12;;;;;;;40.30;26.37;;;7.10;64.30;;;;;;4963332;28;20108;-82
2022/03/10 00:57:38;;;;;;;44.15;27.40;;;7.10;64.00;;;;;;4960595;28;20278;-82
2022/03/10 01:00:08;;;;;;;40.05;25.13;;;7.20;63.80;;;;;;4962701;28;20119;-81
2022/03/10 01:02:35;;;;;;;38.90;25.25;;;7.20;63.80;;;;;;4968381;28;20041;-81
2022/03/10 01:05:01;;;;;;;41.83;26.33;;;7.20;63.70;;;;;;4961461;28;20031;-82
2022/03/10 01:07:27;;;;;;;43.50;28.00;;;7.20;63.70;;;;;;4953019;28;20059;-83
2022/03/10 01:09:53;;;;;;;40.42;25.30;;;7.20;63.70;;;;;;4959904;28;20104;-82
2022/03/10 01:12:19;;;;;;;38.15;25.20;;;7.30;63.60;;;;;;4973460;28;20127;-82
2022/03/10 01:14:45;;;;;;;39.65;24.52;;;7.30;63.40;;;;;;4957048;28;20173;-81
2022/03/10 01:17:10;;;;;;;40.22;26.40;;;7.30;63.20;;;;;;4960525;28;20046;-83
2022/03/10 01:19:37;;;;;;;40.38;25.73;;;7.20;63.30;;;;;;4955740;28;20046;-82
2022/03/10 01:22:03;;;;;;;39.17;25.58;;;7.20;63.30;;;;;;4961779;28;20518;-82
2022/03/10 01:24:28;;;;;;;36.15;24.50;;;7.20;63.30;;;;;;4962664;28;20221;-81
2022/03/10 01:26:54;;;;;;;39.28;24.92;;;7.20;63.20;;;;;;4961896;28;20038;-81
2022/03/10 01:29:21;;;;;;;38.45;24.38;;;7.20;63.30;;;;;;4960771;28;20038;-82
2022/03/10 01:31:46;;;;;;;35.53;23.20;;;7.10;63.80;;;;;;4957067;28;20331;-82
2022/03/10 01:34:13;;;;;;;39.15;25.42;;;7.10;64.00;;;;;;4958644;28;20055;-83
2022/03/10 01:36:40;;;;;;;38.63;25.35;;;7.00;64.40;;;;;;4959183;28;20096;-81
2022/03/10 01:39:06;;;;;;;40.80;26.40;;;6.90;64.80;;;;;;4963359;28;20063;-81
2022/03/10 01:41:32;;;;;;;42.38;24.77;;;6.90;64.60;;;;;;4953206;28;20058;-81
2022/03/10 01:44:07;;;;;;;39.35;26.02;;;6.90;64.30;;;;;;4962895;28;20035;-82
2022/03/10 01:46:33;;;;;;;38.42;25.02;;;6.90;64.30;;;;;;4960421;28;20054;-83
2022/03/10 01:49:00;;;;;;;40.85;25.92;;;6.90;64.20;;;;;;4958554;28;20428;-83
2022/03/10 01:51:26;;;;;;;39.47;25.50;;;6.90;64.10;;;;;;4961802;28;20027;-80
2022/03/10 01:53:52;;;;;;;38.03;24.83;;;6.80;63.90;;;;;;4961769;28;20430;-80
2022/03/10 01:56:19;;;;;;;40.30;26.55;;;6.90;63.70;;;;;;4957856;28;20389;-80
2022/03/10 01:58:46;;;;;;;37.65;24.88;;;6.90;63.70;;;;;;4977810;28;20309;-80
2022/03/10 02:01:12;;;;;;;43.00;25.95;;;6.90;63.70;;;;;;4959982;28;20138;-81
2022/03/10 02:03:38;;;;;;;40.35;25.00;;;6.90;63.60;;;;;;4960459;28;20550;-84
2022/03/10 02:06:05;;;;;;;41.88;26.52;;;6.90;63.50;;;;;;4949062;28;20035;-86
2022/03/10 02:11:15;;;;;;;;;;;6.90;63.40;;;;;;4959784;28;20042;-82
2022/03/10 02:13:41;;;;;;;41.08;26.35;;;6.80;63.30;;;;;;4962170;28;19914;-80
2022/03/10 02:18:56;;;;;;;39.35;25.88;;;6.80;63.20;;;;;;4955265;28;20045;-83
2022/03/10 02:21:23;;;;;;;40.28;25.92;;;6.80;63.20;;;;;;4956658;28;20035;-83
2022/03/10 02:23:50;;;;;;;40.45;25.17;;;6.80;63.20;;;;;;4961187;28;20035;-82
2022/03/10 02:26:16;;;;;;;38.22;24.38;;;6.70;63.50;;;;;;4962062;28;20588;-80
2022/03/10 02:28:42;;;;;;;39.00;25.25;;;6.70;63.70;;;;;;4954896;28;20039;-80
2022/03/10 02:31:09;;;;;;;41.60;24.67;;;6.70;63.60;;;;;;4960312;28;20122;-80
2022/03/10 02:33:35;;;;;;;40.45;26.15;;;6.70;63.30;;;;;;4958386;28;20038;-80
2022/03/10 02:36:02;;;;;;;36.90;24.08;;;6.80;63.30;;;;;;4964015;28;20711;-82
2022/03/10 02:38:27;;;;;;;42.42;26.70;;;6.80;63.30;;;;;;4954156;28;20706;-80
2022/03/10 02:40:53;;;;;;;37.75;24.90;;;6.80;63.20;;;;;;4961142;28;20035;-81
2022/03/10 02:43:20;;;;;;;39.03;24.92;;;6.90;62.90;;;;;;4965752;28;20516;-82
2022/03/10 02:45:47;;;;;;;38.97;24.33;;;6.90;62.90;;;;;;4957577;28;20126;-81
2022/03/10 02:48:13;;;;;;;40.58;25.85;;;6.80;62.90;;;;;;4960277;28;20027;-84
2022/03/10 02:50:39;;;;;;;38.50;25.08;;;6.90;62.80;;;;;;4961314;28;20074;-81
2022/03/10 02:53:05;;;;;;;39.03;24.92;;;6.90;62.80;;;;;;4957380;28;20038;-81
2022/03/10 02:55:32;;;;;;;40.20;24.52;;;6.80;62.90;;;;;;4965396;28;20431;-81
2022/03/10 02:57:58;;;;;;;36.70;24.23;;;6.80;63.00;;;;;;4957618;28;20035;-81
2022/03/10 03:00:24;;;;;;;40.33;24.38;;;6.80;63.10;;;;;;4960073;28;20058;-81
2022/03/10 03:02:50;;;;;;;39.85;24.48;;;6.80;63.10;;;;;;4957470;28;20030;-81
2022/03/10 03:05:16;;;;;;;37.58;23.48;;;6.80;63.10;;;;;;4963980;28;20031;-83
2022/03/10 03:07:46;;;;;;;39.22;24.40;;;6.80;63.30;;;;;;4956679;28;20030;-83
2022/03/10 03:10:12;;;;;;;36.22;24.45;;;6.70;63.40;;;;;;4985867;28;20081;-81
2022/03/10 03:12:50;;;;;;;37.95;24.70;;;6.70;63.60;;;;;;4968045;28;20026;-81
2022/03/10 03:15:17;;;;;;;40.15;25.42;;;6.60;63.90;;;;;;4962467;28;20230;-81
2022/03/10 03:17:43;;;;;;;36.47;24.25;;;6.50;64.40;;;;;;4957204;28;20440;-82
2022/03/10 03:20:14;;;;;;;41.17;25.83;;;6.40;64.60;;;;;;4962118;28;20126;-81
2022/03/10 03:22:43;;;;;;;37.42;23.75;;;6.30;65.00;;;;;;4955288;28;20110;-82
2022/03/10 03:25:11;;;;;;;38.83;25.85;;;6.20;65.30;;;;;;4961091;28;20149;-82
2022/03/10 03:27:37;;;;;;;38.75;25.08;;;6.10;65.60;;;;;;4969970;28;20042;-83
2022/03/10 03:30:04;;;;;;;37.65;25.02;;;6.10;66.10;;;;;;4962782;28;20031;-82
2022/03/10 03:32:30;;;;;;;36.28;23.58;;;6.00;66.30;;;;;;4966987;28;20486;-84
2022/03/10 03:34:56;;;;;;;37.50;24.23;;;5.90;66.50;;;;;;4952482;28;20110;-84
2022/03/10 03:37:21;;;;;;;38.80;26.00;;;5.90;66.70;;;;;;4959734;28;20047;-82
2022/03/10 03:39:47;;;;;;;37.90;25.05;;;5.80;66.90;;;;;;4959910;28;20080;-82
2022/03/10 03:42:12;;;;;;;38.80;25.83;;;5.80;67.10;;;;;;4964207;28;20035;-82
2022/03/10 03:44:38;;;;;;;41.13;26.30;;;5.70;67.20;;;;;;4955642;28;20470;-83
2022/03/10 03:47:04;;;;;;;39.58;25.55;;;5.70;67.40;;;;;;4955980;28;20085;-82
2022/03/10 03:49:29;;;;;;;38.08;24.77;;;5.60;67.40;;;;;;4958595;28;20374;-82
2022/03/10 03:51:55;;;;;;;40.03;25.40;;;5.60;67.40;;;;;;4953761;28;20105;-81
2022/03/10 03:54:21;;;;;;;41.35;25.55;;;5.70;67.60;;;;;;4956426;28;20101;-82
2022/03/10 03:56:47;;;;;;;38.28;25.58;;;5.60;67.60;;;;;;4959654;28;20070;-81
2022/03/10 03:59:12;;;;;;;39.50;25.58;;;5.60;67.70;;;;;;4954719;28;20427;-80
2022/03/10 04:01:38;;;;;;;39.90;25.20;;;5.50;68.00;;;;;;4951820;28;20486;-81
2022/03/10 04:04:04;;;;;;;37.72;25.52;;;5.50;68.50;;;;;;4960018;28;20318;-81
2022/03/10 04:06:29;;;;;;;37.45;24.52;;;5.50;68.60;;;;;;4964703;28;20088;-82
2022/03/10 04:08:55;;;;;;;38.53;23.20;;;5.40;68.60;;;;;;4975581;28;20085;-82
2022/03/10 04:11:21;;;;;;;37.58;24.88;;;5.40;68.80;;;;;;4966509;28;20036;-81
2022/03/10 04:13:47;;;;;;;38.08;25.05;;;5.30;68.90;;;;;;4982849;28;20077;-88
2022/03/10 04:16:13;;;;;;;38.85;25.25;;;5.30;69.00;;;;;;4990462;28;20035;-88
2022/03/10 04:18:38;;;;;;;36.10;22.90;;;5.30;69.20;;;;;;4982782;28;20099;-87
2022/03/10 04:21:04;;;;;;;36.45;23.42;;;5.30;69.40;;;;;;4981513;28;20035;-87
2022/03/10 04:23:30;;;;;;;37.88;23.75;;;5.20;69.50;;;;;;4972951;28;20029;-82
2022/03/10 04:25:56;;;;;;;35.70;23.25;;;5.30;69.70;;;;;;4957516;28;20474;-83
2022/03/10 04:28:22;;;;;;;39.97;25.23;;;5.20;69.60;;;;;;4956107;28;20115;-80
2022/03/10 04:30:48;;;;;;;36.80;24.05;;;5.20;69.70;;;;;;4960632;28;20076;-81
2022/03/10 04:33:14;;;;;;;39.05;24.95;;;5.10;69.70;;;;;;4953216;28;20039;-81
2022/03/10 04:35:40;;;;;;;39.55;26.30;;;5.10;69.90;;;;;;4959227;28;20047;-82
2022/03/10 04:38:07;;;;;;;39.20;24.58;;;5.10;70.30;;;;;;4968546;28;20050;-82
2022/03/10 04:40:33;;;;;;;39.15;25.40;;;5.10;70.50;;;;;;4957158;28;20032;-86
2022/03/10 04:42:59;;;;;;;39.28;25.80;;;5.00;70.50;;;;;;4964964;28;20038;-81
2022/03/10 04:45:24;;;;;;;40.22;26.17;;;5.00;70.50;;;;;;4974435;28;20039;-85
2022/03/10 04:47:50;;;;;;;39.72;26.38;;;4.90;70.60;;;;;;4963325;28;20037;-83
2022/03/10 04:50:17;;;;;;;40.33;26.52;;;4.90;70.70;;;;;;4957505;28;20263;-82
2022/03/10 04:52:43;;;;;;;38.83;25.50;;;4.90;70.80;;;;;;4959259;28;20531;-82
2022/03/10 04:55:10;;;;;;;39.08;24.88;;;4.80;71.00;;;;;;4958024;28;20039;-81
2022/03/10 04:57:36;;;;;;;39.58;25.13;;;4.70;71.10;;;;;;4959646;28;20505;-81
2022/03/10 05:00:08;;;;;;;39.63;26.23;;;4.70;71.20;;;;;;4964054;28;20057;-81
2022/03/10 05:02:35;;;;;;;40.83;25.55;;;4.70;71.30;;;;;;4961287;28;20027;-81
2022/03/10 05:05:01;;;;;;;40.60;26.58;;;4.60;71.40;;;;;;4964223;28;20035;-81
2022/03/10 05:07:27;;;;;;;41.85;24.42;;;4.60;71.60;;;;;;4971243;28;20113;-82
2022/03/10 05:09:52;;;;;;;39.60;24.83;;;4.60;71.70;;;;;;5000562;28;20051;-86
2022/03/10 05:12:18;;;;;;;37.70;23.33;;;4.50;71.80;;;;;;4972766;28;20043;-82
2022/03/10 05:14:44;;;;;;;38.67;24.52;;;4.50;72.00;;;;;;4963538;28;20038;-82
2022/03/10 05:17:09;;;;;;;40.83;25.27;;;4.50;72.10;;;;;;4957737;28;20369;-81
2022/03/10 05:19:35;;;;;;;39.15;23.75;;;4.40;72.20;;;;;;4958488;28;20038;-84
2022/03/10 05:22:01;;;;;;;37.40;23.65;;;4.40;72.40;;;;;;4961794;28;20484;-86
2022/03/10 05:24:26;;;;;;;38.53;26.02;;;4.40;72.40;;;;;;4954612;28;20590;-83
2022/03/10 05:26:52;;;;;;;39.92;24.77;;;4.40;72.50;;;;;;4953762;28;20112;-82
2022/03/10 05:29:18;;;;;;;36.08;23.30;;;4.40;72.70;;;;;;4956937;28;20042;-83
2022/03/10 05:31:44;;;;;;;34.80;22.75;;;4.30;72.70;;;;;;4964272;28;20038;-83
2022/03/10 05:34:09;;;;;;;36.85;23.85;;;4.30;72.90;;;;;;4956839;28;20062;-81
2022/03/10 05:36:36;;;;;;;39.67;24.60;;;4.30;73.10;;;;;;4953491;28;20054;-82
2022/03/10 05:39:03;;;;;;;37.97;25.02;;;4.30;73.10;;;;;;4961664;28;20042;-83
2022/03/10 05:41:33;;;;;;;38.17;25.02;;;4.20;73.10;;;;;;4953314;28;20081;-82
2022/03/10 05:43:59;;;;;;;40.22;25.65;;;4.20;73.20;;;;;;4957413;28;20495;-84
2022/03/10 05:46:25;;;;;;;38.75;24.70;;;4.10;73.10;;;;;;4959709;28;20118;-83
2022/03/10 05:48:51;;;;;;;39.22;24.15;;;4.10;73.10;;;;;;4954617;28;20528;-81
2022/03/10 05:51:16;;;;;;;39.15;25.63;;;4.10;73.10;;;;;;4961240;28;20035;-84
2022/03/10 05:53:42;;;;;;;40.30;24.90;;;4.00;73.20;;;;;;4978599;28;20037;-80
2022/03/10 05:56:08;;;;;;;46.97;29.52;;;4.00;73.30;;;;;;4966657;28;20588;-83
2022/03/10 05:58:33;;;;;;;46.88;28.48;;;3.90;73.80;;;;;;4958133;28;20043;-83
2022/03/10 06:00:59;;;;;;;41.00;26.58;;;4.00;74.30;;;;;;4963654;28;20027;-82
2022/03/10 06:03:25;;;;;;;42.22;26.77;;;4.00;74.20;;;;;;4962345;28;20047;-82
2022/03/10 06:05:50;;;;;;;40.33;27.85;;;4.00;74.40;;;;;;4952010;28;20070;-82
2022/03/10 06:08:16;;;;;;;43.22;26.90;;;4.00;74.50;;;;;;4969473;28;20364;-82
2022/03/10 06:10:41;;;;;;;42.85;27.33;;;4.00;74.60;;;;;;4971858;28;20481;-83
2022/03/10 06:13:07;;;;;;;41.88;27.15;;;4.00;74.70;;;;;;4955495;28;20077;-80
2022/03/10 06:15:33;;;;;;;45.78;29.42;;;3.90;74.90;;;;;;4968712;28;20043;-83
2022/03/10 06:17:58;;;;;;;41.17;27.38;;;3.90;74.90;;;;;;4978016;28;20106;-83
2022/03/10 06:20:25;;;;;;;42.78;26.88;;;3.90;75.10;;;;;;4974587;28;20051;-80
2022/03/10 06:22:51;;;;;;;45.55;26.00;;;4.00;75.10;;;;;;4964899;28;20093;-81
2022/03/10 06:25:16;;;;;;;41.42;27.35;;;3.90;75.00;;;;;;4967469;28;20031;-80
2022/03/10 06:27:42;;;;;;;42.03;27.30;;;4.00;75.10;;;;;;4963915;28;20046;-78
2022/03/10 06:30:08;;;;;;;42.92;26.95;;;3.90;75.20;;;;;;4961918;28;20194;-79
2022/03/10 06:32:34;;;;;;;44.35;28.17;;;4.00;75.30;;;;;;4954985;28;20035;-76
2022/03/10 06:35:00;;;;;;;43.90;26.65;;;4.10;75.60;;;;;;4962098;28;20077;-73
2022/03/10 06:37:26;;;;;;;40.88;28.02;;;4.10;75.70;;;;;;4958183;28;20655;-74
2022/03/10 06:39:55;;;;;;;41.65;26.08;;;4.20;75.60;;;;;;4964102;28;20030;-73
2022/03/10 06:42:21;;;;;;;38.75;25.02;;;4.20;75.50;;;;;;4953763;28;20085;-73
2022/03/10 06:44:47;;;;;;;37.05;24.80;;;4.30;75.60;;;;;;4965431;28;20395;-73
2022/03/10 06:47:13;;;;;;;34.85;23.48;;;4.40;75.30;;;;;;4956717;28;20043;-73
2022/03/10 06:49:39;;;;;;;38.40;24.98;;;4.50;74.70;;;;;;4961754;28;20077;-73
2022/03/10 06:52:06;;;;;;;36.47;24.30;;;4.60;74.30;;;;;;4956265;28;20046;-74
2022/03/10 06:54:32;;;;;;;37.03;24.90;;;4.60;73.80;;;;;;4975697;28;20122;-72
2022/03/10 06:56:58;;;;;;;37.97;23.40;;;4.70;73.60;;;;;;4966592;28;20062;-74
2022/03/10 06:59:24;;;;;;;36.00;23.33;;;4.70;73.60;;;;;;4961048;28;20034;-74
2022/03/10 07:01:49;;;;;;;40.78;25.63;;;4.70;73.60;;;;;;4959870;28;20475;-75
2022/03/10 07:04:15;;;;;;;43.38;26.88;;;4.70;73.80;;;;;;4954578;28;20439;-74
2022/03/10 07:06:41;;;;;;;35.88;24.15;;;4.80;73.80;;;;;;4956848;28;20054;-75
2022/03/10 07:09:06;;;;;;;39.38;26.75;;;4.80;74.10;;;;;;4959154;28;20386;-75
2022/03/10 07:11:32;;;;;;;37.33;24.73;;;4.90;74.30;;;;;;4955878;28;20043;-75
2022/03/10 07:13:58;;;;;;;39.95;26.25;;;5.00;74.40;;;;;;4956575;28;20037;-75
2022/03/10 07:16:23;;;;;;;36.55;24.90;;;5.10;74.50;;;;;;4954857;28;20474;-74
2022/03/10 07:18:52;;;;;;;38.78;25.75;;;5.20;74.40;;;;;;4955037;28;20577;-75
2022/03/10 07:21:18;;;;;;;37.38;25.13;;;5.30;74.60;;;;;;4958463;28;20481;-78
2022/03/10 07:23:44;;;;;;;39.47;25.98;;;5.50;74.60;;;;;;4960206;28;20046;-77
2022/03/10 07:26:11;;;;;;;39.13;25.60;;;5.60;74.70;;;;;;4976129;28;20034;-77
2022/03/10 07:28:36;;;;;;;38.65;24.88;;;5.80;75.10;;;;;;4957522;28;20043;-77
2022/03/10 07:31:02;;;;;;;38.63;25.10;;;5.90;74.80;;;;;;4960964;28;20058;-78
2022/03/10 07:33:28;;;;;;;39.20;26.65;;;6.00;74.70;;;;;;4955428;28;20379;-76
2022/03/10 07:35:54;;;;;;;37.83;25.42;;;6.20;74.50;;;;;;4962083;28;20081;-77
2022/03/10 07:38:20;;;;;;;36.38;25.05;;;6.30;74.40;;;;;;4976001;28;20434;-76
2022/03/10 07:40:45;;;;;;;38.33;25.48;;;6.60;74.00;;;;;;4964824;28;20259;-76
2022/03/10 07:43:11;;;;;;;37.63;25.38;;;6.60;73.80;;;;;;4964818;28;20118;-76
2022/03/10 07:45:36;;;;;;;41.85;25.00;;;6.90;73.40;;;;;;4962611;28;20043;-77
2022/03/10 07:48:02;;;;;;;34.92;23.45;;;7.10;72.30;;;;;;4965948;28;22000;-78
2022/03/10 07:50:28;;;;;;;34.22;23.73;;;7.30;72.20;;;;;;4956212;28;20038;-79
2022/03/10 07:52:54;;;;;;;33.22;23.15;;;7.50;71.80;;;;;;4950294;28;20134;-79
2022/03/10 07:55:20;;;;;;;34.15;22.90;;;7.60;71.30;;;;;;4949142;28;20405;-76
2022/03/10 07:57:46;;;;;;;32.80;23.45;;;7.80;71.30;;;;;;4952727;28;20112;-75
2022/03/10 08:00:12;;;;;;;30.55;22.48;;;7.90;70.50;;;;;;4951910;28;20070;-77
2022/03/10 08:02:38;;;;;;;36.08;23.00;;;8.10;70.20;;;;;;4957677;28;20039;-75
2022/03/10 08:05:05;;;;;;;32.83;21.55;;;8.30;69.60;;;;;;4948841;28;20114;-75
2022/03/10 08:07:34;;;;;;;31.38;22.38;;;8.50;69.30;;;;;;4952394;28;20122;-77
2022/03/10 08:10:01;;;;;;;31.00;21.80;;;8.60;69.40;;;;;;4956079;28;20041;-76
2022/03/10 08:12:31;;;;;;;31.25;21.40;;;8.80;68.40;;;;;;4949014;28;20039;-77
2022/03/10 08:14:57;;;;;;;31.85;21.52;;;9.00;66.80;;;;;;4948898;28;20406;-76
2022/03/10 08:17:25;;;;;;;31.45;22.80;;;9.20;65.90;;;;;;4952258;28;20075;-76
2022/03/10 08:19:51;;;;;;;32.30;21.45;;;9.40;65.50;;;;;;4950204;28;20039;-76
2022/03/10 08:22:17;;;;;;;32.47;21.48;;;9.60;64.70;;;;;;4953038;28;20094;-76
2022/03/10 08:24:44;;;;;;;30.52;20.95;;;9.70;63.80;;;;;;4958461;28;20122;-76
2022/03/10 08:27:09;;;;;;;31.85;22.88;;;9.90;63.20;;;;;;4952777;28;20051;-74
2022/03/10 08:29:35;;;;;;;31.30;21.20;;;10.00;62.70;;;;;;4955904;28;20042;-75
2022/03/10 08:32:01;;;;;;;30.35;21.13;;;10.10;62.80;;;;;;4982944;28;20542;-80
2022/03/10 08:34:26;;;;;;;34.17;23.02;;;10.30;62.20;;;;;;4964878;28;20425;-78
2022/03/10 08:36:52;;;;;;;30.45;22.40;;;10.50;61.40;;;;;;4952264;28;20047;-80
2022/03/10 08:39:18;;;;;;;30.48;21.67;;;10.60;61.20;;;;;;4956529;28;20042;-80
2022/03/10 08:41:44;;;;;;;30.17;21.20;;;10.60;60.90;;;;;;4953300;28;20286;-80
2022/03/10 08:44:12;;;;;;;36.55;23.70;;;10.90;60.70;;;;;;4953177;28;20039;-80
2022/03/10 08:46:39;;;;;;;29.73;22.38;;;11.00;60.20;;;;;;4950217;28;20225;-78
2022/03/10 08:49:05;;;;;;;32.17;21.70;;;11.10;60.00;;;;;;4950625;28;20046;-78
2022/03/10 08:51:30;;;;;;;29.38;21.73;;;11.40;59.50;;;;;;4955775;28;20046;-77
2022/03/10 08:53:57;;;;;;;33.03;21.40;;;11.50;59.20;;;;;;4959465;28;20037;-78
2022/03/10 08:56:23;;;;;;;29.45;21.00;;;11.50;58.70;;;;;;4954908;28;20034;-78
2022/03/10 08:58:48;;;;;;;31.10;20.90;;;11.60;58.00;;;;;;4951041;28;20050;-78
2022/03/10 09:01:14;;;;;;;31.52;22.30;;;11.70;58.50;;;;;;4960553;28;20049;-82
2022/03/10 09:03:40;;;;;;;28.20;19.98;;;11.90;57.90;;;;;;4959726;28;20031;-77
2022/03/10 09:06:07;;;;;;;28.58;20.30;;;11.90;57.50;;;;;;4955784;28;20046;-79
2022/03/10 09:08:33;;;;;;;30.95;20.92;;;12.10;57.50;;;;;;4950221;28;20042;-78
2022/03/10 09:11:00;;;;;;;28.33;20.58;;;12.10;57.40;;;;;;4956335;28;20431;-77
2022/03/10 09:13:26;;;;;;;28.92;20.02;;;12.40;56.80;;;;;;4947599;28;20031;-77
2022/03/10 09:15:51;;;;;;;29.35;21.85;;;12.50;56.10;;;;;;4954436;28;20035;-78
2022/03/10 09:18:17;;;;;;;27.27;19.45;;;12.50;55.90;;;;;;4950885;28;20537;-79
2022/03/10 09:20:43;;;;;;;26.80;20.13;;;12.50;55.30;;;;;;4955595;28;20091;-77
2022/03/10 09:23:09;;;;;;;26.75;19.38;;;12.50;55.60;;;;;;4950629;28;20473;-79
2022/03/10 09:25:34;;;;;;;28.55;20.58;;;12.60;55.00;;;;;;4956972;28;20065;-78
2022/03/10 09:28:00;;;;;;;29.48;20.65;;;12.60;55.00;;;;;;4958487;28;20057;-78
2022/03/10 09:30:26;;;;;;;26.20;20.40;;;12.70;56.20;;;;;;4956512;28;20039;-79
2022/03/10 09:32:52;;;;;;;25.88;19.88;;;12.80;55.50;;;;;;4954629;28;20039;-78
2022/03/10 09:35:18;;;;;;;26.67;20.63;;;13.00;55.60;;;;;;4947402;28;20458;-76
2022/03/10 09:37:44;;;;;;;30.02;21.05;;;13.10;55.80;;;;;;4947705;28;20146;-76
2022/03/10 09:40:11;;;;;;;29.65;21.25;;;13.00;55.60;;;;;;4945073;28;20059;-78
2022/03/10 09:42:37;;;;;;;26.45;20.50;;;13.10;55.40;;;;;;4956980;28;20119;-78
2022/03/10 09:45:07;;;;;;;28.77;20.88;;;13.10;54.90;;;;;;4954839;28;20130;-80
2022/03/10 09:47:36;;;;;;;30.45;22.40;;;13.10;55.10;;;;;;4950950;28;20702;-78
2022/03/10 09:50:07;;;;;;;30.95;22.35;;;13.10;55.00;;;;;;4956301;28;20397;-78
2022/03/10 09:52:33;;;;;;;28.38;20.77;;;13.20;55.20;;;;;;4957201;28;20046;-78
2022/03/10 09:54:59;;;;;;;33.25;22.13;;;13.10;54.50;;;;;;4959157;28;20494;-78
2022/03/10 09:57:26;;;;;;;31.23;23.08;;;13.20;54.00;;;;;;4950315;28;20167;-79
2022/03/10 09:59:59;;;;;;;30.27;22.15;;;13.10;54.10;;;;;;4957621;28;20323;-77
2022/03/10 10:02:27;;;;;;;30.63;23.67;;;13.20;54.80;;;;;;4953190;28;20042;-79
2022/03/10 10:04:54;;;;;;;30.67;23.65;;;13.10;54.00;;;;;;4955886;28;20565;-77
2022/03/10 10:07:30;;;;;;;31.42;22.27;;;13.20;54.00;;;;;;4955501;28;20595;-77
2022/03/10 10:09:57;;;;;;;27.95;22.67;;;13.40;53.10;;;;;;4954927;28;20464;-77
2022/03/10 10:12:31;;;;;;;30.30;21.98;;;13.70;53.40;;;;;;4952240;28;20091;-78
2022/03/10 10:15:00;;;;;;;29.02;21.70;;;13.70;53.30;;;;;;4967417;28;20394;-78
2022/03/10 10:17:30;;;;;;;29.05;22.08;;;13.80;52.20;;;;;;4958399;28;20094;-78
2022/03/10 10:19:57;;;;;;;28.88;21.63;;;13.80;52.40;;;;;;4955270;28;20065;-77
2022/03/10 10:22:25;;;;;;;28.40;21.52;;;13.80;51.80;;;;;;4951158;28;20531;-77
2022/03/10 10:25:08;;;;;;;30.58;22.60;;;13.90;51.40;;;;;;4952534;28;20142;-78
2022/03/10 10:27:35;;;;;;;31.83;23.17;;;13.90;52.70;;;;;;4947428;28;20100;-74
2022/03/10 10:30:06;;;;;;;36.97;22.67;;;14.00;52.00;;;;;;4951168;28;20060;-75
2022/03/10 10:32:55;;;;;;;30.20;22.58;;;14.10;52.10;;;;;;4946676;28;20105;-74
2022/03/10 10:35:22;;;;;;;30.85;22.75;;;14.10;51.60;;;;;;4952443;28;20053;-74
2022/03/10 10:37:50;;;;;;;31.52;22.58;;;14.30;51.20;;;;;;4957102;28;20517;-76
2022/03/10 10:40:34;;;;;;;28.20;21.95;;;14.50;52.10;;;;;;4957643;28;20050;-76
2022/03/10 10:43:03;;;;;;;31.88;22.48;;;14.40;51.80;;;;;;4955436;28;20048;-77
2022/03/10 10:45:38;;;;;;;34.58;23.33;;;14.60;52.00;;;;;;4948770;28;20502;-77
2022/03/10 10:48:04;;;;;;;30.80;21.98;;;14.80;50.70;;;;;;4956047;28;20055;-77
2022/03/10 10:50:32;;;;;;;32.20;22.67;;;14.80;50.50;;;;;;4950826;28;20536;-77
2022/03/10 10:52:59;;;;;;;31.67;23.27;;;15.10;50.50;;;;;;4956233;28;20383;-77
2022/03/10 10:55:45;;;;;;;29.80;23.15;;;15.10;50.30;;;;;;4954413;28;20027;-77
2022/03/10 10:58:14;;;;;;;30.40;22.90;;;15.10;50.10;;;;;;4952117;28;20059;-78
2022/03/10 11:00:49;;;;;;;29.42;22.98;;;15.10;50.30;;;;;;4976326;28;20030;-79
2022/03/10 11:03:31;;;;;;;30.88;23.73;;;15.10;50.40;;;;;;4982654;28;20027;-78
2022/03/10 11:05:58;;;;;;;29.88;23.58;;;15.20;50.50;;;;;;4964272;28;20336;-78
2022/03/10 11:08:28;;;;;;;32.85;24.05;;;15.30;49.90;;;;;;4949021;28;20035;-78
2022/03/10 11:10:54;;;;;;;30.38;23.35;;;15.20;49.40;;;;;;4953964;28;20104;-78
2022/03/10 11:13:23;;;;;;;36.25;25.33;;;15.20;49.80;;;;;;4957365;28;20420;-79
2022/03/10 11:15:51;;;;;;;31.70;24.08;;;15.20;49.90;;;;;;4952851;28;20050;-78
2022/03/10 11:18:21;;;;;;;30.27;23.90;;;15.40;48.80;;;;;;4965420;28;20046;-78
2022/03/10 11:20:51;;;;;;;29.05;23.05;;;15.30;49.10;;;;;;4955511;28;20286;-76
2022/03/10 11:23:41;;;;;;;30.20;24.45;;;15.30;49.80;;;;;;4959647;28;20038;-77
2022/03/10 11:26:22;;;;;;;30.90;22.25;;;15.60;50.60;;;;;;4952738;28;20050;-79
2022/03/10 11:28:50;;;;;;;29.95;21.67;;;15.60;48.50;;;;;;4953397;28;20042;-79
2022/03/10 11:31:17;;;;;;;30.98;23.05;;;15.60;48.70;;;;;;4950924;28;20438;-77
2022/03/10 11:33:44;;;;;;;32.75;22.25;;;15.60;48.50;;;;;;4950152;28;20080;-77
2022/03/10 11:36:26;;;;;;;26.98;20.48;;;15.60;49.20;;;;;;4950457;28;21761;-77
2022/03/10 11:39:04;;;;;;;28.67;20.55;;;15.80;47.30;;;;;;4950695;28;20050;-78
2022/03/10 11:41:45;;;;;;;28.50;21.23;;;16.00;46.80;;;;;;4950997;28;20047;-77
2022/03/10 11:44:12;;;;;;;32.15;22.58;;;16.10;47.90;;;;;;4950502;28;20035;-77
2022/03/10 11:46:55;;;;;;;29.58;23.13;;;16.30;47.50;;;;;;4949773;28;20035;-78
2022/03/10 11:49:21;;;;;;;30.33;23.50;;;16.40;47.50;;;;;;4952358;28;20047;-77
2022/03/10 11:51:47;;;;;;;29.15;22.92;;;16.40;48.40;;;;;;4951707;28;20035;-78
2022/03/10 11:54:37;;;;;;;28.75;21.23;;;16.40;47.30;;;;;;4953088;28;20103;-78
2022/03/10 11:57:07;;;;;;;31.02;21.10;;;16.20;46.60;;;;;;4952027;28;20061;-78
2022/03/10 11:59:34;;;;;;;28.30;21.95;;;16.30;46.50;;;;;;4953355;28;20034;-77
2022/03/10 12:02:01;;;;;;;28.00;21.85;;;16.20;46.90;;;;;;4957646;28;20723;-78
2022/03/10 12:04:38;;;;;;;28.00;21.25;;;16.10;48.00;;;;;;4958805;28;20031;-77
2022/03/10 12:07:05;;;;;;;31.00;21.65;;;16.10;47.30;;;;;;4952316;28;20479;-77
2022/03/10 12:09:34;;;;;;;26.85;20.05;;;15.90;46.60;;;;;;4956431;28;20466;-77
2022/03/10 12:12:19;;;;;;;27.35;21.08;;;16.00;47.00;;;;;;4954900;28;20515;-77
2022/03/10 12:14:47;;;;;;;28.45;19.85;;;16.30;47.20;;;;;;4957142;28;20049;-76
2022/03/10 12:17:54;;;;;;;29.20;21.80;;;16.50;47.50;;;;;;4961514;28;20047;-75
2022/03/10 12:20:25;;;;;;;28.85;22.17;;;16.60;47.60;;;;;;4956561;28;20043;-76
2022/03/10 12:23:03;;;;;;;29.63;21.73;;;16.40;46.10;;;;;;4954310;28;20159;-78
2022/03/10 12:25:36;;;;;;;30.98;22.55;;;16.40;46.60;;;;;;4961141;28;20050;-77
2022/03/10 12:28:03;;;;;;;30.10;22.08;;;16.30;46.50;;;;;;4957019;28;20098;-80
2022/03/10 12:30:30;;;;;;;27.83;21.75;;;16.40;47.00;;;;;;4955424;28;20039;-78
2022/03/10 12:32:57;;;;;;;27.25;21.52;;;16.60;46.90;;;;;;4960822;28;20038;-78
2022/03/10 12:35:36;;;;;;;28.77;21.60;;;16.60;46.80;;;;;;4954370;28;20047;-76
2022/03/10 12:38:03;;;;;;;28.75;21.08;;;16.60;46.70;;;;;;4956508;28;20100;-78
2022/03/10 12:40:31;;;;;;;31.73;21.35;;;16.50;47.60;;;;;;4954534;28;20379;-78